Time;durP1;ratioP1;P1;durP2;ratioP2;P2;SDS_P1;SDS_P2;PMS_P1;PMS_P2;Temp;Humidity;BMP_temperature;BMP_pressure;BME280_temperature;BME280_humidity;BME280_pressure;Samples;Min_cycle;Max_cycle;Signal;HPM_P1;HPM_P2
2021/12/10 00:00:31;;;;;;;7.57;3.30;;;14.50;99.90;;;;;;5230141;28;20041;-75
2021/12/10 00:03:05;;;;;;;10.63;3.25;;;14.50;99.90;;;;;;5230386;28;20071;-74
2021/12/10 00:05:43;;;;;;;10.43;3.20;;;14.30;99.90;;;;;;5230230;28;20029;-76
2021/12/10 00:08:14;;;;;;;7.95;3.30;;;14.40;99.90;;;;;;5230193;28;20021;-76
2021/12/10 00:10:50;;;;;;;7.50;3.17;;;14.30;99.90;;;;;;5230162;28;20037;-75
2021/12/10 00:13:21;;;;;;;9.77;3.20;;;14.20;99.90;;;;;;5230331;28;20032;-75
2021/12/10 00:15:54;;;;;;;12.60;3.38;;;14.50;99.90;;;;;;5230257;28;20058;-76
2021/12/10 00:18:32;;;;;;;11.85;2.63;;;14.40;99.90;;;;;;5230612;28;20108;-75
2021/12/10 00:21:05;;;;;;;7.78;2.80;;;14.50;99.90;;;;;;5230072;28;20029;-76
2021/12/10 00:23:36;;;;;;;5.75;2.50;;;14.60;99.90;;;;;;5229939;28;20071;-75
2021/12/10 00:26:06;;;;;;;7.10;2.95;;;14.60;99.90;;;;;;5230208;28;20380;-76
2021/12/10 00:28:40;;;;;;;8.48;2.60;;;14.50;99.90;;;;;;5229911;28;20029;-76
2021/12/10 00:31:44;;;;;;;7.60;3.05;;;14.30;99.90;;;;;;5229586;28;20049;-75
2021/12/10 00:34:26;;;;;;;6.90;2.88;;;14.60;99.90;;;;;;5229754;28;20021;-74
2021/12/10 00:37:01;;;;;;;8.75;3.85;;;14.50;99.90;;;;;;5229954;28;20048;-77
2021/12/10 00:39:45;;;;;;;8.98;2.67;;;14.60;99.90;;;;;;5229818;28;20017;-76
2021/12/10 00:42:20;;;;;;;5.63;3.13;;;14.80;99.90;;;;;;5229296;28;20101;-75
2021/12/10 00:44:52;;;;;;;8.27;2.97;;;14.60;99.90;;;;;;5229455;28;20469;-77
2021/12/10 00:47:31;;;;;;;7.68;2.88;;;14.50;99.90;;;;;;5228105;28;20028;-76
2021/12/10 00:50:19;;;;;;;7.82;2.88;;;14.50;99.90;;;;;;5229319;28;20021;-75
2021/12/10 00:52:54;;;;;;;8.90;2.95;;;14.60;99.90;;;;;;5229280;28;20044;-76
2021/12/10 00:55:29;;;;;;;5.40;2.63;;;14.20;99.90;;;;;;5229543;28;20044;-75
2021/12/10 00:58:06;;;;;;;9.50;3.20;;;14.30;99.90;;;;;;5229238;28;20029;-76
2021/12/10 01:00:49;;;;;;;8.70;3.03;;;14.30;99.90;;;;;;5229018;28;20112;-75
2021/12/10 01:03:24;;;;;;;8.32;3.13;;;14.10;99.90;;;;;;5229029;28;20077;-76
2021/12/10 01:06:00;;;;;;;7.50;3.08;;;14.30;99.90;;;;;;5228784;28;20025;-75
2021/12/10 01:08:33;;;;;;;11.63;3.45;;;13.80;99.90;;;;;;5227756;28;20025;-75
2021/12/10 01:11:16;;;;;;;9.50;3.50;;;14.10;99.90;;;;;;5227663;28;20510;-76
2021/12/10 01:13:50;;;;;;;10.00;3.05;;;13.90;99.90;;;;;;5228869;28;20032;-75
2021/12/10 01:27:39;;;;;;;8.63;3.75;;;13.80;99.90;;;;;;5228567;28;20139;-75
2021/12/10 01:30:12;;;;;;;8.55;3.30;;;13.60;99.90;;;;;;5228295;28;20045;-77
2021/12/10 01:32:50;;;;;;;8.55;4.25;;;13.50;99.90;;;;;;5228471;28;20049;-78
2021/12/10 01:35:29;;;;;;;14.85;3.67;;;13.50;99.90;;;;;;5228413;28;20433;-77
2021/12/10 01:38:01;;;;;;;11.63;3.70;;;13.40;99.90;;;;;;5228399;28;20028;-75
2021/12/10 01:40:35;;;;;;;10.57;4.32;;;13.30;99.90;;;;;;5228011;28;20029;-78
2021/12/10 01:43:11;;;;;;;8.75;4.28;;;13.10;99.90;;;;;;5228655;28;20024;-75
2021/12/10 01:45:48;;;;;;;9.02;4.30;;;13.20;99.90;;;;;;5228188;28;20025;-77
2021/12/10 01:48:26;;;;;;;13.45;3.70;;;13.00;99.90;;;;;;5226910;28;20381;-77
2021/12/10 01:50:58;;;;;;;10.40;4.18;;;13.10;99.90;;;;;;5227031;28;20038;-77
2021/12/10 01:53:33;;;;;;;9.27;4.50;;;12.60;99.90;;;;;;5226712;28;20029;-78
2021/12/10 01:56:18;;;;;;;10.73;4.15;;;12.20;99.90;;;;;;5226479;28;20028;-79
2021/12/10 01:58:50;;;;;;;8.73;4.38;;;11.80;99.90;;;;;;5227953;28;20039;-79
2021/12/10 02:01:31;;;;;;;15.30;4.50;;;12.20;99.90;;;;;;5228097;28;20037;-83
2021/12/10 02:04:04;;;;;;;13.60;3.95;;;12.40;99.90;;;;;;5227858;28;20074;-80
2021/12/10 02:06:35;;;;;;;9.82;4.05;;;12.70;99.90;;;;;;5227978;28;20036;-80
2021/12/10 02:09:08;;;;;;;9.45;4.10;;;12.30;99.90;;;;;;5227768;28;20048;-77
2021/12/10 02:11:39;;;;;;;11.82;3.95;;;12.30;99.90;;;;;;5226497;28;20041;-75
2021/12/10 02:14:10;;;;;;;14.93;4.32;;;12.30;99.90;;;;;;5224279;28;20587;-81
2021/12/10 02:16:42;;;;;;;9.85;3.60;;;12.40;99.90;;;;;;5227368;28;20025;-75
2021/12/10 02:19:15;;;;;;;12.68;4.10;;;12.40;99.90;;;;;;5221823;28;20021;-76
2021/12/10 02:21:46;;;;;;;6.68;3.15;;;12.50;99.90;;;;;;5208270;28;20374;-76
2021/12/10 02:24:18;;;;;;;12.27;3.47;;;12.10;99.90;;;;;;5205609;28;20477;-74
2021/12/10 02:26:59;;;;;;;8.27;3.70;;;13.00;99.90;;;;;;5206987;28;20025;-76
2021/12/10 02:29:33;;;;;;;10.93;3.08;;;12.80;99.90;;;;;;5205580;28;20120;-75
2021/12/10 02:32:07;;;;;;;7.60;2.88;;;12.90;99.90;;;;;;5206768;28;20089;-75
2021/12/10 02:34:38;;;;;;;8.63;3.03;;;12.80;99.90;;;;;;5207040;28;20132;-74
2021/12/10 02:37:09;;;;;;;6.88;3.20;;;12.50;99.90;;;;;;5206739;28;20029;-73
2021/12/10 02:39:40;;;;;;;11.80;3.53;;;12.60;99.90;;;;;;5206575;28;20461;-73
2021/12/10 02:42:11;;;;;;;14.98;4.10;;;12.90;99.90;;;;;;5205604;28;20026;-76
2021/12/10 02:44:42;;;;;;;11.35;3.92;;;12.40;99.90;;;;;;5206573;28;20025;-78
2021/12/10 02:47:13;;;;;;;8.35;2.92;;;12.50;99.90;;;;;;5206561;28;20373;-77
2021/12/10 02:49:44;;;;;;;9.75;3.63;;;13.00;99.90;;;;;;5206562;28;20022;-77
2021/12/10 02:52:16;;;;;;;9.30;3.20;;;12.50;99.90;;;;;;5207641;28;20048;-76
2021/12/10 02:54:46;;;;;;;9.65;3.45;;;12.70;99.90;;;;;;5211375;28;20029;-76
2021/12/10 02:57:18;;;;;;;9.88;3.85;;;12.60;99.90;;;;;;5210950;28;20036;-75
2021/12/10 02:59:49;;;;;;;11.40;3.45;;;12.00;99.90;;;;;;5210786;28;20023;-76
2021/12/10 03:02:24;;;;;;;6.78;3.25;;;11.80;99.90;;;;;;5210895;28;20029;-76
2021/12/10 03:04:55;;;;;;;6.72;3.08;;;12.30;99.90;;;;;;5210923;28;20100;-76
2021/12/10 03:07:26;;;;;;;12.35;3.33;;;12.40;99.90;;;;;;5210929;28;20418;-76
2021/12/10 03:09:57;;;;;;;5.65;3.33;;;11.80;99.90;;;;;;5210750;28;20052;-76
2021/12/10 03:12:30;;;;;;;8.00;3.53;;;12.30;99.90;;;;;;5210625;28;20038;-79
2021/12/10 03:15:01;;;;;;;7.80;3.60;;;12.80;99.90;;;;;;5210762;28;20083;-78
2021/12/10 03:17:33;;;;;;;10.48;3.47;;;12.20;99.90;;;;;;5210350;28;20037;-78
2021/12/10 03:20:08;;;;;;;9.85;4.18;;;12.10;99.90;;;;;;5210514;28;20465;-78
2021/12/10 03:22:40;;;;;;;8.65;4.25;;;11.60;99.90;;;;;;5210508;28;20025;-77
2021/12/10 03:25:14;;;;;;;13.38;4.25;;;12.20;99.90;;;;;;5209927;28;20057;-78
2021/12/10 03:27:45;;;;;;;8.77;4.07;;;12.60;99.90;;;;;;5210341;28;20495;-78
2021/12/10 03:30:21;;;;;;;10.13;4.10;;;12.40;99.90;;;;;;5209995;28;20049;-78
2021/12/10 03:32:54;;;;;;;10.50;3.92;;;12.40;99.90;;;;;;5210490;28;20475;-77
2021/12/10 03:35:35;;;;;;;12.35;4.28;;;12.40;99.90;;;;;;5210407;28;20017;-78
2021/12/10 03:38:06;;;;;;;8.63;4.25;;;12.30;99.90;;;;;;5210162;28;20097;-78
2021/12/10 03:40:38;;;;;;;14.65;4.30;;;12.80;99.90;;;;;;5210304;28;20029;-76
2021/12/10 03:43:14;;;;;;;8.93;4.00;;;12.40;99.90;;;;;;5208807;28;20021;-78
2021/12/10 03:45:49;;;;;;;14.90;4.68;;;12.40;99.90;;;;;;5210039;28;20026;-80
2021/12/10 03:48:29;;;;;;;8.07;3.50;;;12.50;99.90;;;;;;5210044;28;20357;-81
2021/12/10 03:51:04;;;;;;;8.00;4.50;;;12.50;99.90;;;;;;5209788;28;20059;-79
2021/12/10 03:53:35;;;;;;;11.05;4.18;;;12.40;99.90;;;;;;5209780;28;20036;-79
2021/12/10 03:56:18;;;;;;;7.85;3.95;;;12.20;99.90;;;;;;5209972;28;20029;-79
2021/12/10 03:58:51;;;;;;;9.35;3.90;;;12.00;99.90;;;;;;5209952;28;20018;-78
2021/12/10 04:01:25;;;;;;;6.57;3.83;;;12.20;99.90;;;;;;5210039;28;20038;-78
2021/12/10 04:03:58;;;;;;;8.80;4.22;;;12.00;99.90;;;;;;5208033;28;20026;-80
2021/12/10 04:06:29;;;;;;;9.88;4.97;;;11.60;99.90;;;;;;5209540;28;20025;-76
2021/12/10 04:09:01;;;;;;;11.90;4.15;;;11.90;99.90;;;;;;5208420;28;20088;-78
2021/12/10 04:11:33;;;;;;;10.60;4.25;;;12.50;99.90;;;;;;5209488;28;20554;-78
2021/12/10 04:14:05;;;;;;;8.85;3.65;;;11.70;99.90;;;;;;5209345;28;20445;-76
2021/12/10 04:16:37;;;;;;;5.90;3.60;;;12.10;99.90;;;;;;5209592;28;20082;-77
2021/12/10 04:19:12;;;;;;;9.48;4.18;;;11.80;99.90;;;;;;5209488;28;20048;-79
2021/12/10 04:21:43;;;;;;;7.55;4.05;;;11.30;99.90;;;;;;5209422;28;20029;-79
2021/12/10 04:24:19;;;;;;;10.15;4.07;;;11.80;99.90;;;;;;5209271;28;20388;-81
2021/12/10 04:26:51;;;;;;;10.52;3.85;;;11.90;99.90;;;;;;5208988;28;20029;-78
2021/12/10 04:29:22;;;;;;;6.78;3.80;;;11.90;99.90;;;;;;5208757;28;20032;-78
2021/12/10 04:31:55;;;;;;;7.57;3.20;;;12.40;99.90;;;;;;5208655;28;20054;-79
2021/12/10 04:34:27;;;;;;;11.70;3.80;;;12.50;99.90;;;;;;5209284;28;20341;-81
2021/12/10 04:37:00;;;;;;;8.63;4.07;;;11.90;99.90;;;;;;5209200;28;20021;-81
2021/12/10 04:39:31;;;;;;;9.02;4.00;;;11.40;99.90;;;;;;5209032;28;20449;-80
2021/12/10 04:42:02;;;;;;;9.02;3.67;;;11.60;99.90;;;;;;5208833;28;20025;-81
2021/12/10 04:44:34;;;;;;;7.38;3.63;;;12.40;99.90;;;;;;5208914;28;20338;-78
2021/12/10 04:47:05;;;;;;;10.18;3.97;;;12.20;99.90;;;;;;5207611;28;20025;-75
2021/12/10 04:49:36;;;;;;;9.23;3.40;;;12.40;99.90;;;;;;5208852;28;20384;-75
2021/12/10 04:52:08;;;;;;;8.40;3.58;;;12.60;99.90;;;;;;5207639;28;20529;-71
2021/12/10 04:54:39;;;;;;;8.30;3.45;;;12.70;99.90;;;;;;5208643;28;20026;-71
2021/12/10 04:57:10;;;;;;;11.88;4.05;;;12.70;99.90;;;;;;5208580;28;20022;-76
2021/12/10 04:59:41;;;;;;;9.27;3.40;;;12.80;99.90;;;;;;5208605;28;20491;-75
2021/12/10 05:02:15;;;;;;;8.77;3.70;;;12.70;99.90;;;;;;5208497;28;20025;-76
2021/12/10 05:04:48;;;;;;;11.57;3.90;;;12.90;99.90;;;;;;5208384;28;20022;-74
2021/12/10 05:07:19;;;;;;;8.70;3.47;;;13.10;99.90;;;;;;5208468;28;20060;-75
2021/12/10 05:09:50;;;;;;;9.55;3.70;;;12.90;99.90;;;;;;5208402;28;20099;-74
2021/12/10 05:12:21;;;;;;;8.02;3.53;;;12.90;99.90;;;;;;5208677;28;20453;-74
2021/12/10 05:14:59;;;;;;;11.98;3.53;;;13.00;99.90;;;;;;5207650;28;20108;-77
2021/12/10 05:17:32;;;;;;;8.13;3.53;;;13.20;99.90;;;;;;5207797;28;20030;-74
2021/12/10 05:20:12;;;;;;;8.52;3.30;;;13.20;99.90;;;;;;5208067;28;20014;-77
2021/12/10 05:22:45;;;;;;;16.13;3.63;;;13.30;99.90;;;;;;5208133;28;20021;-78
2021/12/10 05:25:18;;;;;;;10.63;3.80;;;13.40;99.90;;;;;;5207985;28;20029;-77
2021/12/10 05:27:49;;;;;;;8.07;3.40;;;13.50;99.90;;;;;;5208190;28;20101;-77
2021/12/10 05:30:23;;;;;;;10.88;3.88;;;13.30;99.90;;;;;;5207528;28;20053;-78
2021/12/10 05:32:54;;;;;;;12.45;4.18;;;13.00;99.90;;;;;;5207924;28;20030;-81
2021/12/10 05:35:25;;;;;;;9.70;3.95;;;12.90;99.90;;;;;;5207914;28;20373;-74
2021/12/10 05:37:56;;;;;;;7.93;3.55;;;12.70;99.90;;;;;;5207730;28;20029;-76
2021/12/10 05:40:27;;;;;;;9.15;3.40;;;12.80;99.90;;;;;;5207887;28;20473;-73
2021/12/10 05:42:58;;;;;;;11.45;3.47;;;13.00;99.90;;;;;;5207652;28;20076;-79
2021/12/10 05:45:30;;;;;;;8.75;3.65;;;13.10;99.90;;;;;;5206135;28;20021;-77
2021/12/10 05:48:02;;;;;;;9.70;3.13;;;13.20;99.90;;;;;;5207495;28;20029;-74
2021/12/10 05:50:34;;;;;;;5.78;2.95;;;13.60;99.90;;;;;;5207608;28;20064;-77
2021/12/10 05:53:06;;;;;;;9.95;2.92;;;13.50;99.90;;;;;;5207745;28;20030;-76
2021/12/10 05:55:38;;;;;;;7.43;3.30;;;13.50;99.90;;;;;;5207622;28;20044;-86
2021/12/10 05:58:09;;;;;;;9.57;3.00;;;13.50;99.90;;;;;;5208025;28;20033;-82
2021/12/10 06:00:48;;;;;;;8.70;3.10;;;13.50;99.90;;;;;;5209783;28;21364;-76
2021/12/10 06:03:25;;;;;;;10.68;3.35;;;13.60;99.90;;;;;;5209663;28;20031;-78
2021/12/10 06:06:00;;;;;;;11.82;3.08;;;13.60;99.90;;;;;;5226669;28;20048;-80
2021/12/10 06:08:36;;;;;;;8.45;3.10;;;13.60;99.90;;;;;;5223475;28;20071;-78
2021/12/10 06:11:12;;;;;;;11.13;3.38;;;13.70;99.90;;;;;;5221806;28;20426;-79
2021/12/10 06:13:47;;;;;;;9.55;2.97;;;13.80;99.90;;;;;;5225921;28;20027;-77
2021/12/10 06:16:23;;;;;;;7.85;3.10;;;13.80;99.90;;;;;;5225794;28;20029;-79
2021/12/10 06:18:54;;;;;;;11.55;4.40;;;13.80;99.90;;;;;;5226357;28;20036;-79
2021/12/10 06:21:25;;;;;;;11.50;4.45;;;13.80;99.90;;;;;;5226401;28;20017;-79
2021/12/10 06:23:56;;;;;;;12.27;4.45;;;13.80;99.90;;;;;;5226241;28;20028;-79
2021/12/10 06:26:28;;;;;;;9.35;3.90;;;13.70;99.90;;;;;;5225792;28;20025;-76
2021/12/10 06:29:00;;;;;;;8.10;3.22;;;13.90;99.90;;;;;;5226707;28;20028;-78
2021/12/10 06:31:31;;;;;;;8.48;3.30;;;13.90;99.90;;;;;;5225209;28;20061;-79
2021/12/10 06:34:03;;;;;;;8.15;3.13;;;13.90;99.90;;;;;;5225729;28;20056;-83
2021/12/10 06:36:35;;;;;;;7.18;2.58;;;14.30;99.90;;;;;;5225336;28;20396;-77
2021/12/10 06:39:09;;;;;;;9.52;3.03;;;14.40;99.90;;;;;;5225581;28;20028;-73
2021/12/10 06:41:40;;;;;;;9.32;3.00;;;14.60;99.90;;;;;;5225398;28;20032;-79
2021/12/10 06:44:11;;;;;;;9.88;2.60;;;14.90;99.90;;;;;;5226331;28;20021;-77
2021/12/10 06:46:42;;;;;;;7.35;2.70;;;15.00;99.90;;;;;;5227285;28;20041;-82
2021/12/10 06:49:14;;;;;;;7.30;3.03;;;15.10;99.90;;;;;;5225868;28;20088;-75
2021/12/10 06:51:45;;;;;;;8.68;2.17;;;15.20;99.90;;;;;;5225618;28;20503;-75
2021/12/10 06:54:19;;;;;;;5.40;2.03;;;15.20;99.90;;;;;;5225024;28;20499;-72
2021/12/10 06:56:52;;;;;;;5.40;1.80;;;15.10;99.90;;;;;;5226456;28;20033;-74
2021/12/10 06:59:25;;;;;;;5.97;2.28;;;15.50;99.90;;;;;;5228634;28;20476;-76
2021/12/10 07:01:56;;;;;;;6.15;2.00;;;15.60;99.90;;;;;;5226753;28;20021;-78
2021/12/10 07:04:27;;;;;;;8.82;2.40;;;15.70;99.90;;;;;;5225208;28;20424;-78
2021/12/10 07:06:58;;;;;;;7.75;2.38;;;15.80;99.90;;;;;;5229197;28;20426;-76
2021/12/10 07:09:29;;;;;;;10.23;2.42;;;15.90;99.90;;;;;;5223661;28;20365;-76
2021/12/10 07:12:00;;;;;;;8.20;2.42;;;15.60;99.90;;;;;;5228315;28;20067;-78
2021/12/10 07:14:32;;;;;;;8.25;2.28;;;15.90;99.90;;;;;;5224916;28;20046;-72
2021/12/10 07:17:05;;;;;;;6.13;2.22;;;15.90;99.90;;;;;;5225401;28;20094;-77
2021/12/10 07:19:36;;;;;;;7.03;1.98;;;16.20;99.90;;;;;;5229187;28;20040;-75
2021/12/10 07:22:07;;;;;;;15.43;2.40;;;16.10;99.90;;;;;;5227373;28;20032;-76
2021/12/10 07:24:38;;;;;;;8.50;2.33;;;16.20;99.90;;;;;;5224959;28;20052;-78
2021/12/10 07:27:11;;;;;;;5.85;1.83;;;16.30;99.90;;;;;;5225388;28;20029;-78
2021/12/10 07:29:43;;;;;;;8.07;2.13;;;16.30;99.90;;;;;;5224179;28;20040;-75
2021/12/10 07:32:14;;;;;;;10.55;2.25;;;16.40;99.90;;;;;;5224946;28;20029;-73
2021/12/10 07:34:45;;;;;;;7.75;2.20;;;16.40;99.90;;;;;;5225020;28;20025;-76
2021/12/10 07:37:16;;;;;;;13.40;2.08;;;16.40;99.90;;;;;;5225049;28;20087;-72
2021/12/10 07:39:47;;;;;;;4.07;1.92;;;16.30;99.90;;;;;;5228601;28;20048;-75
2021/12/10 07:42:18;;;;;;;6.60;1.75;;;16.30;99.90;;;;;;5228942;28;20121;-76
2021/12/10 07:44:50;;;;;;;4.80;1.73;;;16.40;99.90;;;;;;5228414;28;20037;-75
2021/12/10 07:47:21;;;;;;;8.90;2.22;;;16.50;99.90;;;;;;5228322;28;20028;-76
2021/12/10 07:49:53;;;;;;;7.70;2.00;;;16.50;99.90;;;;;;5228900;28;20504;-77
2021/12/10 07:52:27;;;;;;;9.15;1.80;;;16.60;99.90;;;;;;5228168;28;20064;-77
2021/12/10 07:54:58;;;;;;;7.82;1.90;;;16.60;99.90;;;;;;5227233;28;20503;-76
2021/12/10 07:57:29;;;;;;;7.60;2.10;;;16.60;99.90;;;;;;5228629;28;20023;-74
2021/12/10 08:00:00;;;;;;;6.78;1.90;;;16.60;99.90;;;;;;5228423;28;20033;-75
2021/12/10 08:02:30;;;;;;;6.32;1.88;;;16.60;99.90;;;;;;5228330;28;20017;-74
2021/12/10 08:05:02;;;;;;;9.77;2.08;;;16.50;99.90;;;;;;5228901;28;20516;-74
2021/12/10 08:07:33;;;;;;;8.45;2.75;;;16.60;99.90;;;;;;5228290;28;20388;-73
2021/12/10 08:10:06;;;;;;;7.05;2.30;;;16.60;99.90;;;;;;5227976;28;20029;-71
2021/12/10 08:12:37;;;;;;;6.57;2.10;;;16.60;99.90;;;;;;5228177;28;20037;-73
2021/12/10 08:15:09;;;;;;;6.68;1.67;;;16.70;99.90;;;;;;5222767;28;20032;-73
2021/12/10 08:17:42;;;;;;;7.93;1.88;;;16.80;99.90;;;;;;5228096;28;20035;-70
2021/12/10 08:20:19;;;;;;;9.57;2.30;;;16.70;99.90;;;;;;5228877;28;20029;-72
2021/12/10 08:22:51;;;;;;;13.05;2.58;;;16.70;99.90;;;;;;5225970;28;20021;-74
2021/12/10 08:25:24;;;;;;;10.30;2.60;;;17.00;99.90;;;;;;5228474;28;20029;-76
2021/12/10 08:27:56;;;;;;;6.75;2.05;;;16.70;99.90;;;;;;5228405;28;20029;-75
2021/12/10 08:30:28;;;;;;;8.70;2.38;;;16.80;99.90;;;;;;5227077;28;20060;-72
2021/12/10 08:33:00;;;;;;;6.60;2.17;;;17.00;99.90;;;;;;5227952;28;20029;-74
2021/12/10 08:35:32;;;;;;;9.60;2.22;;;17.00;99.90;;;;;;5226400;28;20028;-69
2021/12/10 08:38:03;;;;;;;8.65;1.85;;;16.80;99.90;;;;;;5225299;28;20586;-72
2021/12/10 08:40:47;;;;;;;10.73;2.65;;;17.10;99.90;;;;;;5227518;28;20031;-72
2021/12/10 08:43:18;;;;;;;8.32;2.20;;;17.10;99.90;;;;;;5224740;28;20021;-73
2021/12/10 08:45:52;;;;;;;6.25;1.85;;;17.10;99.90;;;;;;5228153;28;21361;-73
2021/12/10 08:48:25;;;;;;;5.53;1.85;;;17.10;99.90;;;;;;5227545;28;20104;-77
2021/12/10 08:51:00;;;;;;;8.02;2.10;;;17.40;99.90;;;;;;5227449;28;20083;-75
2021/12/10 08:53:37;;;;;;;6.13;2.08;;;17.50;99.90;;;;;;5225500;28;20049;-75
2021/12/10 08:56:08;;;;;;;9.82;2.47;;;17.30;99.90;;;;;;5227106;28;20376;-77
2021/12/10 08:58:40;;;;;;;6.05;1.85;;;17.70;99.90;;;;;;5249964;28;20023;-76
2021/12/10 09:01:17;;;;;;;8.30;1.73;;;17.60;99.90;;;;;;5239093;28;20052;-75
2021/12/10 09:03:51;;;;;;;9.10;2.15;;;17.50;99.90;;;;;;5248646;28;20523;-76
2021/12/10 09:06:24;;;;;;;8.40;2.38;;;17.70;99.90;;;;;;5249720;28;20012;-75
2021/12/10 09:08:56;;;;;;;9.50;1.60;;;17.50;99.90;;;;;;5249656;28;20028;-78
2021/12/10 09:11:28;;;;;;;6.38;2.15;;;17.50;99.90;;;;;;5249652;28;20028;-75
2021/12/10 09:13:59;;;;;;;4.95;1.75;;;17.50;99.90;;;;;;5248062;28;20025;-76
2021/12/10 09:16:30;;;;;;;7.78;2.00;;;17.50;99.90;;;;;;5249387;28;20054;-76
2021/12/10 09:19:13;;;;;;;8.23;2.40;;;17.50;99.90;;;;;;5248095;28;20027;-73
2021/12/10 09:21:48;;;;;;;7.85;1.80;;;17.50;99.90;;;;;;5249199;28;20380;-76
2021/12/10 09:24:23;;;;;;;5.60;1.90;;;17.60;99.90;;;;;;5248941;28;20052;-78
2021/12/10 09:27:00;;;;;;;7.20;2.08;;;17.50;99.90;;;;;;5248047;28;20785;-74
2021/12/10 09:29:38;;;;;;;5.15;1.70;;;17.70;99.90;;;;;;5249018;28;20048;-77
2021/12/10 09:32:13;;;;;;;9.02;1.80;;;17.60;99.90;;;;;;5248969;28;20479;-76
2021/12/10 09:34:49;;;;;;;8.15;1.92;;;17.60;99.90;;;;;;5240550;28;20029;-73
2021/12/10 09:37:25;;;;;;;8.65;2.00;;;17.60;99.90;;;;;;5216518;28;20037;-74
2021/12/10 09:39:58;;;;;;;7.93;1.77;;;17.50;99.90;;;;;;5207369;28;20017;-76
2021/12/10 09:42:33;;;;;;;7.88;1.95;;;17.40;99.90;;;;;;5216855;28;20033;-76
2021/12/10 09:45:11;;;;;;;10.45;2.58;;;17.60;99.90;;;;;;5227935;28;20032;-77
2021/12/10 09:47:47;;;;;;;10.60;2.30;;;17.50;99.90;;;;;;5213664;28;20017;-76
2021/12/10 09:50:25;;;;;;;10.48;2.35;;;17.50;99.90;;;;;;5218130;28;20032;-74
2021/12/10 09:52:59;;;;;;;8.48;2.22;;;17.30;99.90;;;;;;5228146;28;20123;-74
2021/12/10 09:55:37;;;;;;;11.80;2.13;;;17.40;99.90;;;;;;5228090;28;20372;-73
2021/12/10 09:58:08;;;;;;;8.30;1.90;;;17.40;99.90;;;;;;5227965;28;20423;-76
2021/12/10 10:00:49;;;;;;;9.45;1.80;;;17.40;99.90;;;;;;5227328;28;20112;-75
2021/12/10 10:03:30;;;;;;;7.68;1.90;;;17.40;99.90;;;;;;5227861;28;20095;-77
2021/12/10 10:06:02;;;;;;;7.38;1.55;;;17.40;99.90;;;;;;5228007;28;20021;-75
2021/12/10 10:08:39;;;;;;;8.55;2.00;;;17.70;99.90;;;;;;5227695;28;20036;-74
2021/12/10 10:11:20;;;;;;;7.13;2.17;;;17.50;99.90;;;;;;5227632;28;20037;-76
2021/12/10 10:13:57;;;;;;;;;;;17.70;99.90;;;;;;5228120;28;20495;-74
2021/12/10 10:16:32;;;;;;;7.00;2.67;;;17.70;99.90;;;;;;5226126;28;19959;-74
2021/12/10 10:19:05;;;;;;;5.95;1.92;;;17.60;99.90;;;;;;5227483;28;20056;-78
2021/12/10 10:21:41;;;;;;;9.18;1.90;;;17.50;99.90;;;;;;5226387;28;20422;-76
2021/12/10 10:24:12;;;;;;;7.63;2.30;;;17.50;99.90;;;;;;5227365;28;20105;-73
2021/12/10 10:26:53;;;;;;;10.52;2.13;;;17.50;99.90;;;;;;5226205;28;20483;-78
2021/12/10 10:29:27;;;;;;;7.22;1.58;;;17.70;99.90;;;;;;5227746;28;20581;-83
2021/12/10 10:32:08;;;;;;;10.18;2.13;;;17.60;99.90;;;;;;5226845;28;20056;-77
2021/12/10 10:34:50;;;;;;;6.53;2.10;;;17.80;99.90;;;;;;5226786;28;20033;-78
2021/12/10 10:37:21;;;;;;;5.65;1.77;;;17.80;99.90;;;;;;5226926;28;20039;-78
2021/12/10 10:39:52;;;;;;;4.75;1.90;;;17.90;99.90;;;;;;5226804;28;20384;-76
2021/12/10 10:42:26;;;;;;;8.70;2.00;;;17.90;99.90;;;;;;5226552;28;20021;-75
2021/12/10 10:45:06;;;;;;;9.80;2.22;;;17.80;99.90;;;;;;5225690;28;20033;-77
2021/12/10 10:47:37;;;;;;;;;;;17.80;99.90;;;;;;5226977;28;20472;-79
2021/12/10 10:50:24;;;;;;;9.30;1.60;;;17.80;99.90;;;;;;5226704;28;19958;-77
2021/12/10 10:53:00;;;;;;;6.68;1.80;;;17.80;99.90;;;;;;5227014;28;20032;-79
2021/12/10 10:55:37;;;;;;;9.48;1.80;;;17.80;99.90;;;;;;5227158;28;20067;-73
2021/12/10 10:58:14;;;;;;;8.50;2.33;;;17.70;99.90;;;;;;5225689;28;20117;-78
2021/12/10 11:01:00;;;;;;;6.68;2.17;;;17.80;99.90;;;;;;5213130;28;20027;-73
2021/12/10 11:03:37;;;;;;;10.50;2.17;;;17.70;99.90;;;;;;5247380;28;20394;-76
2021/12/10 11:06:18;;;;;;;7.18;1.60;;;17.70;99.90;;;;;;5247553;28;20020;-75
2021/12/10 11:08:52;;;;;;;5.75;1.60;;;17.70;99.90;;;;;;5247594;28;20032;-77
2021/12/10 11:11:25;;;;;;;7.68;2.03;;;17.80;99.90;;;;;;5247605;28;20059;-75
2021/12/10 11:14:12;;;;;;;6.93;1.90;;;17.20;99.90;;;;;;5249663;28;20027;-77
2021/12/10 11:16:46;;;;;;;8.77;2.13;;;17.80;99.90;;;;;;5251433;28;20107;-76
2021/12/10 11:19:22;;;;;;;5.78;1.92;;;17.80;99.90;;;;;;5251287;28;20024;-79
2021/12/10 11:22:00;;;;;;;7.00;2.20;;;17.80;99.90;;;;;;5251295;28;20035;-76
2021/12/10 11:24:37;;;;;;;7.18;1.92;;;17.80;99.90;;;;;;5251300;28;20020;-79
2021/12/10 11:27:19;;;;;;;7.65;2.00;;;17.80;99.90;;;;;;5251395;28;20039;-77
2021/12/10 11:30:10;;;;;;;7.68;1.77;;;17.80;99.90;;;;;;5250918;28;20039;-77
2021/12/10 11:32:42;;;;;;;;;;;17.80;99.90;;;;;;5251889;28;20056;-79
2021/12/10 11:35:25;;;;;;;8.75;2.38;;;18.00;99.90;;;;;;5251496;28;19905;-78
2021/12/10 11:38:05;;;;;;;6.65;2.13;;;18.10;99.90;;;;;;5251322;28;20029;-78
2021/12/10 11:40:59;;;;;;;7.57;2.45;;;18.20;99.90;;;;;;5238370;28;20021;-74
2021/12/10 11:47:02;;;;;;;6.78;2.08;;;18.20;99.90;;;;;;5230496;28;20029;-78
2021/12/10 11:49:38;;;;;;;8.60;2.13;;;18.10;99.90;;;;;;5221148;28;20036;-78
2021/12/10 11:52:16;;;;;;;8.25;1.95;;;18.20;99.90;;;;;;5230247;28;20033;-78
2021/12/10 11:54:55;;;;;;;11.43;3.35;;;18.10;99.90;;;;;;5229091;28;20048;-78
2021/12/10 11:57:31;;;;;;;10.80;2.63;;;18.10;99.90;;;;;;5230437;28;20500;-78
2021/12/10 12:00:14;;;;;;;12.70;2.30;;;18.10;99.90;;;;;;5230062;28;20032;-79
2021/12/10 12:02:47;;;;;;;6.15;2.28;;;18.00;99.90;;;;;;5224285;28;20033;-78
2021/12/10 12:05:28;;;;;;;6.90;1.77;;;18.00;99.90;;;;;;5230081;28;20025;-79
2021/12/10 12:08:02;;;;;;;7.88;2.10;;;17.90;99.90;;;;;;5209638;28;20029;-77
2021/12/10 12:10:38;;;;;;;12.52;2.03;;;17.90;99.90;;;;;;5216915;28;20053;-77
2021/12/10 12:15:54;;;;;;;7.55;2.67;;;17.80;99.90;;;;;;5229886;28;20017;-78
2021/12/10 12:18:32;;;;;;;8.63;2.65;;;17.80;99.90;;;;;;5230103;28;20036;-77
2021/12/10 12:27:12;;;;;;;8.32;2.45;;;17.90;99.90;;;;;;5209288;28;20119;-79
2021/12/10 12:29:55;;;;;;;11.75;2.33;;;17.90;99.90;;;;;;5208617;28;20108;-79
2021/12/10 12:32:37;;;;;;;5.18;2.05;;;17.90;99.90;;;;;;5226970;28;20064;-78
2021/12/10 12:35:27;;;;;;;8.75;2.13;;;17.90;99.90;;;;;;5229465;28;20029;-83
2021/12/10 12:38:21;;;;;;;4.43;1.98;;;17.80;99.90;;;;;;5229412;28;20036;-79
2021/12/10 12:41:19;;;;;;;7.70;2.25;;;17.90;99.90;;;;;;5229622;28;20108;-74
2021/12/10 12:44:24;;;;;;;7.30;2.40;;;17.90;99.90;;;;;;5229676;28;20028;-78
2021/12/10 12:47:00;;;;;;;4.95;2.35;;;18.00;99.90;;;;;;5228327;28;20127;-79
2021/12/10 12:49:49;;;;;;;5.55;2.45;;;17.90;99.90;;;;;;5229436;28;20040;-78
2021/12/10 12:52:49;;;;;;;8.73;2.15;;;17.90;99.90;;;;;;5229365;28;20036;-80
2021/12/10 12:55:44;;;;;;;5.25;1.95;;;18.00;99.90;;;;;;5228775;28;20033;-78
2021/12/10 12:58:35;;;;;;;6.18;2.13;;;18.00;99.90;;;;;;5230341;28;20411;-79
2021/12/10 13:01:11;;;;;;;5.03;1.85;;;17.90;99.90;;;;;;5229930;28;20086;-80
2021/12/10 13:04:06;;;;;;;4.05;1.92;;;17.80;99.90;;;;;;5229306;28;20032;-76
2021/12/10 13:06:50;;;;;;;3.63;1.70;;;17.80;99.90;;;;;;5227156;28;20021;-74
2021/12/10 13:09:52;;;;;;;6.53;2.47;;;17.70;99.90;;;;;;5229145;28;20024;-77
2021/12/10 13:12:55;;;;;;;9.25;2.53;;;17.60;99.90;;;;;;5228538;28;20044;-77
2021/12/10 13:15:34;;;;;;;7.47;2.55;;;17.50;99.90;;;;;;5228787;28;20029;-77
2021/12/10 13:18:08;;;;;;;6.60;2.80;;;17.60;99.90;;;;;;5228772;28;20033;-76
2021/12/10 13:20:53;;;;;;;6.43;2.53;;;17.50;99.90;;;;;;5229001;28;20358;-77
2021/12/10 13:23:28;;;;;;;7.75;2.30;;;17.40;99.90;;;;;;5229108;28;20460;-78
2021/12/10 13:26:07;;;;;;;4.88;2.30;;;17.50;99.90;;;;;;5227273;28;20090;-79
2021/12/10 13:28:47;;;;;;;8.10;2.35;;;17.40;99.90;;;;;;5228866;28;20461;-83
2021/12/10 13:31:21;;;;;;;8.05;2.50;;;17.40;99.90;;;;;;5228242;28;20049;-82
2021/12/10 13:33:59;;;;;;;5.50;2.47;;;16.40;99.90;;;;;;5222099;28;20071;-75
2021/12/10 13:36:38;;;;;;;6.65;2.80;;;16.00;99.90;;;;;;5223865;28;20681;-73
2021/12/10 13:39:20;;;;;;;6.15;2.50;;;15.90;99.90;;;;;;5228679;28;20028;-78
2021/12/10 13:41:51;;;;;;;7.38;2.80;;;15.60;99.90;;;;;;5228493;28;20017;-75
2021/12/10 13:47:08;;;;;;;8.90;2.50;;;15.70;99.90;;;;;;5207893;28;20057;-74
2021/12/10 13:49:49;;;;;;;7.27;2.90;;;15.50;99.90;;;;;;5207518;28;20062;-77
2021/12/10 13:52:47;;;;;;;9.43;5.05;;;15.40;99.90;;;;;;5205360;28;20096;-77